Terminal Aerodrome Forecast
Issued by NWS

Home | Current Version | Previous Version | Text Only | Print | Product List | Glossary On
Versions: 1 2 3 4 5 6 7 8 9 10 11 12 13 14 15 16
000
FTUS41 KBTV 192300 RRA
TAFSLK
TAF
KSLK 192343Z 2000/2024 VRB06KT P6SM SKC
     FM200800 00000KT 2SM BR SCT002
     FM201200 16005KT P6SM BKN040=

USA.gov is the U.S. government's official web portal to all federal, state and local government web resources and services.